Mount Sterling, KY (40353)

11:24 AM EDT on July 29, 2016 (GMT -0400)
Hinkston Pike | | Change Station

Elev 971 ft 38.07 °N, 83.94 °W | Updated 56 seconds ago

Overcast
Overcast
74.8 °F
Feels Like 74 °F
N
3.1
Wind Variable Wind from SW
Gusts 7.5 mph

Today
High -- | Low -- °F
--% Chance of Precip.
Yesterday
High -- | Low -- °F
Precip. -- in
Pressure 30.01 in
Visibility 10.0 miles
Clouds Mostly Cloudy 900 ft
Overcast 2300 ft
Heat Index 74 °F
Dew Point 72 °F
Humidity 90%
Rainfall 0.00 in
Snow Depth Not available.
6:36 AM 8:47 PM
Waning Crescent, 21% visible
METAR KIOB 291515Z AUTO 25004KT 10SM BKN009 OVC023 24/22 A3001 RMK AO2
Pressure 30.01 in
Visibility 10.0 miles
Clouds Mostly Cloudy 900 ft
Overcast 2300 ft
Heat Index 74 °F
Dew Point 72 °F
Humidity 90%
Rainfall 0.00 in
Snow Depth Not available.
6:36 AM 8:47 PM
Waning Crescent, 21% visible
METAR KIOB 291515Z AUTO 25004KT 10SM BKN009 OVC023 24/22 A3001 RMK AO2

10-Day Weather Forecast

Almanac

Astronomy

Jul. 29, 2016 Rise Set
Actual Time
Civil Twilight
Nautical Twilight
Astronomical Twilight
Moon
Length of Visible Light
Length of Day
Tomorrow will be .
, % of the Moon is Illuminated

Today's Extremes

State Highs State Lows

Community

WunderPhotos

Upload Photos

1,928,346 photos uploaded!

WunderBlog® & News

Nearby

Air Quality

  Air Quality AQ Index Pollutant
Not available.

Snow Depth

Station Depth Elevation

Earthquake Activity

City Distance Mag. Time & Date
Minimum magnitude displayed is 2.5.

Coastal Water Temperatures

Place Temperature

Stations

Nearby Weather Stations

Station Location Temp. Windchill Dew Point Humidity Wind Precip. Elev Updated Type
                   

Watches & Warnings

There are currently no watches in effect.